Time;durP1;ratioP1;P1;durP2;ratioP2;P2;SDS_P1;SDS_P2;PMS_P1;PMS_P2;Temp;Humidity;BMP_temperature;BMP_pressure;BME280_temperature;BME280_humidity;BME280_pressure;Samples;Min_cycle;Max_cycle;Signal;HPM_P1;HPM_P2
2020/12/04 00:02:04;;;;;;;6.35;4.75;;;4.20;99.90;;;;;;5073861;28;20052;-57
2020/12/04 00:04:36;;;;;;;7.55;5.18;;;4.20;99.90;;;;;;5073944;28;20561;-59
2020/12/04 00:07:04;;;;;;;7.25;4.68;;;4.20;99.90;;;;;;5065585;28;20056;-61
2020/12/04 00:09:30;;;;;;;6.80;4.68;;;4.30;99.90;;;;;;5074120;28;20048;-61
2020/12/04 00:11:57;;;;;;;5.90;4.18;;;4.20;99.90;;;;;;5073958;28;20048;-62
2020/12/04 00:14:24;;;;;;;7.00;4.90;;;4.20;99.90;;;;;;5073301;28;20052;-61
2020/12/04 00:16:51;;;;;;;7.65;5.20;;;4.30;99.90;;;;;;5073248;28;20063;-60
2020/12/04 00:19:17;;;;;;;6.82;4.80;;;4.30;99.90;;;;;;5073899;28;20060;-62
2020/12/04 00:21:49;;;;;;;6.10;4.20;;;4.30;99.90;;;;;;5073314;28;20052;-62
2020/12/04 00:24:16;;;;;;;7.38;5.03;;;4.30;99.90;;;;;;5073376;28;20082;-62
2020/12/04 00:26:43;;;;;;;7.00;5.20;;;4.20;99.90;;;;;;5073674;28;20052;-62
2020/12/04 00:29:12;;;;;;;7.60;4.53;;;4.30;99.90;;;;;;5073456;28;20456;-62
2020/12/04 00:31:39;;;;;;;8.63;5.38;;;4.30;99.90;;;;;;5073571;28;20056;-61
2020/12/04 00:34:05;;;;;;;6.80;4.18;;;4.40;99.90;;;;;;5073502;28;20054;-61
2020/12/04 00:36:32;;;;;;;7.30;4.93;;;4.30;99.90;;;;;;5073523;28;20049;-60
2020/12/04 00:38:59;;;;;;;7.95;5.43;;;4.40;99.90;;;;;;5072631;28;20053;-61
2020/12/04 00:41:30;;;;;;;6.88;4.63;;;4.40;99.90;;;;;;5073053;28;20091;-61
2020/12/04 00:43:57;;;;;;;6.18;3.92;;;4.30;99.90;;;;;;5073305;28;20098;-61
2020/12/04 00:46:24;;;;;;;6.18;4.53;;;4.30;99.90;;;;;;5073062;28;20052;-60
2020/12/04 00:48:50;;;;;;;4.68;3.17;;;4.30;99.90;;;;;;5073068;28;20062;-61
2020/12/04 00:51:17;;;;;;;7.47;3.80;;;4.30;99.90;;;;;;5073051;28;20139;-60
2020/12/04 00:53:44;;;;;;;6.07;4.18;;;4.20;99.90;;;;;;5072075;28;20432;-59
2020/12/04 00:56:12;;;;;;;8.48;4.97;;;4.20;99.90;;;;;;5054955;28;20049;-61
2020/12/04 00:58:39;;;;;;;6.60;4.05;;;4.20;99.90;;;;;;5072907;28;20102;-62
2020/12/04 01:01:06;;;;;;;6.80;4.43;;;4.20;99.90;;;;;;5072862;28;20045;-61
2020/12/04 01:03:32;;;;;;;6.65;4.82;;;4.20;99.90;;;;;;5072787;28;20045;-60
2020/12/04 01:05:59;;;;;;;6.60;4.63;;;4.20;99.90;;;;;;5072842;28;20056;-61
2020/12/04 01:08:26;;;;;;;7.22;5.15;;;4.30;99.90;;;;;;5072766;28;20048;-61
2020/12/04 01:10:53;;;;;;;7.93;4.78;;;4.30;99.90;;;;;;5073007;28;20052;-62
2020/12/04 01:13:20;;;;;;;6.43;4.30;;;4.30;99.90;;;;;;5072750;28;20045;-61
2020/12/04 01:15:47;;;;;;;5.57;4.25;;;4.50;99.90;;;;;;5072467;28;20048;-61
2020/12/04 01:18:13;;;;;;;7.07;4.75;;;4.40;99.90;;;;;;5072686;28;20524;-61
2020/12/04 01:20:40;;;;;;;7.30;4.15;;;4.50;99.90;;;;;;5072815;28;20052;-61
2020/12/04 01:23:06;;;;;;;7.97;4.22;;;4.50;99.90;;;;;;5072271;28;20505;-61
2020/12/04 01:25:33;;;;;;;5.82;4.30;;;4.50;99.90;;;;;;5072487;28;20052;-61
2020/12/04 01:28:00;;;;;;;6.60;4.13;;;4.50;99.90;;;;;;5071659;28;20059;-61
2020/12/04 01:30:30;;;;;;;6.60;4.20;;;4.60;99.90;;;;;;5072486;28;20493;-62
2020/12/04 01:32:56;;;;;;;;;;;4.60;99.90;;;;;;5073528;28;20064;-62
2020/12/04 01:35:23;;;;;;;5.70;3.75;;;4.60;99.90;;;;;;5072829;28;19924;-60
2020/12/04 01:37:50;;;;;;;6.35;4.30;;;4.60;99.90;;;;;;5064774;28;20048;-61
2020/12/04 01:40:19;;;;;;;7.05;4.50;;;4.60;99.90;;;;;;5052340;28;20062;-61
2020/12/04 01:42:46;;;;;;;6.65;4.03;;;4.70;99.90;;;;;;5052156;28;20095;-61
2020/12/04 01:45:12;;;;;;;5.90;3.95;;;4.70;99.90;;;;;;5052285;28;20053;-62
2020/12/04 01:47:40;;;;;;;5.82;3.63;;;4.80;99.90;;;;;;5052279;28;20422;-61
2020/12/04 01:50:07;;;;;;;6.03;3.65;;;4.80;99.90;;;;;;5052485;28;20457;-61
2020/12/04 01:52:34;;;;;;;4.93;3.67;;;4.70;99.90;;;;;;5052686;28;20536;-61
2020/12/04 01:55:01;;;;;;;5.50;3.45;;;4.80;99.90;;;;;;5052139;28;20494;-59
2020/12/04 01:57:33;;;;;;;6.10;4.38;;;4.90;99.90;;;;;;5052541;28;20057;-61
2020/12/04 02:00:00;;;;;;;5.03;3.65;;;4.90;99.90;;;;;;5052730;28;20045;-61
2020/12/04 02:02:27;;;;;;;4.75;3.53;;;5.00;99.90;;;;;;5052534;28;20049;-61
2020/12/04 02:04:54;;;;;;;6.18;3.63;;;5.00;99.90;;;;;;5052760;28;20526;-61
2020/12/04 02:07:29;;;;;;;5.55;4.15;;;5.00;99.90;;;;;;5053188;28;20057;-60
2020/12/04 02:10:00;;;;;;;5.30;3.38;;;5.10;99.90;;;;;;5052152;28;20061;-60
2020/12/04 02:12:28;;;;;;;6.03;4.38;;;4.90;99.90;;;;;;5052301;28;20491;-61
2020/12/04 02:14:55;;;;;;;6.45;3.90;;;5.10;99.90;;;;;;5053489;28;20688;-61
2020/12/04 02:17:31;;;;;;;6.00;4.47;;;5.00;99.90;;;;;;5051956;28;20041;-61
2020/12/04 02:19:59;;;;;;;6.05;4.57;;;5.10;99.90;;;;;;5052179;28;20057;-61
2020/12/04 02:22:34;;;;;;;6.93;4.68;;;5.00;99.90;;;;;;5051905;28;20053;-61
2020/12/04 02:25:01;;;;;;;8.00;5.40;;;5.00;99.90;;;;;;5043567;28;20049;-61
2020/12/04 02:27:28;;;;;;;7.30;4.57;;;4.70;99.90;;;;;;5052053;28;20099;-61
2020/12/04 02:29:55;;;;;;;7.22;5.40;;;4.50;99.90;;;;;;5052102;28;20049;-62
2020/12/04 02:32:21;;;;;;;7.00;5.13;;;4.60;99.90;;;;;;5051809;28;20059;-62
2020/12/04 02:34:48;;;;;;;7.30;5.30;;;4.50;99.90;;;;;;5051845;28;20056;-62
2020/12/04 02:37:17;;;;;;;7.82;5.07;;;4.50;99.90;;;;;;5051640;28;20053;-61
2020/12/04 02:39:45;;;;;;;7.72;4.95;;;4.50;99.90;;;;;;5055298;28;20045;-61
2020/12/04 02:42:12;;;;;;;7.72;5.30;;;4.50;99.90;;;;;;5073917;28;20135;-60
2020/12/04 02:44:38;;;;;;;5.97;4.57;;;4.60;99.90;;;;;;5075473;28;20048;-60
2020/12/04 02:47:05;;;;;;;6.85;4.65;;;4.60;99.90;;;;;;5073680;28;20052;-61
2020/12/04 02:49:32;;;;;;;7.72;5.00;;;4.70;99.90;;;;;;5075572;28;20044;-62
2020/12/04 02:51:58;;;;;;;6.18;4.10;;;4.70;99.90;;;;;;5075376;28;20102;-61
2020/12/04 02:54:27;;;;;;;5.65;4.10;;;4.70;99.90;;;;;;5075229;28;20052;-62
2020/12/04 02:56:55;;;;;;;4.75;3.42;;;4.70;99.90;;;;;;5075640;28;20106;-62
2020/12/04 02:59:22;;;;;;;6.05;4.55;;;4.70;99.90;;;;;;5075209;28;20110;-61
2020/12/04 03:01:48;;;;;;;7.32;4.50;;;4.70;99.90;;;;;;5067551;28;20045;-62
2020/12/04 03:04:15;;;;;;;5.50;4.15;;;4.80;99.90;;;;;;5055222;28;20053;-62
2020/12/04 03:06:42;;;;;;;5.82;4.28;;;4.80;99.90;;;;;;5055223;28;20044;-62
2020/12/04 03:09:08;;;;;;;6.05;3.97;;;4.90;99.90;;;;;;5055111;28;20482;-62
2020/12/04 03:11:35;;;;;;;5.07;3.83;;;4.90;99.90;;;;;;5070902;28;20052;-62
2020/12/04 03:14:05;;;;;;;6.00;3.72;;;4.90;99.90;;;;;;5067032;28;20139;-61
2020/12/04 03:16:34;;;;;;;5.75;4.60;;;5.10;99.90;;;;;;5074851;28;20098;-60
2020/12/04 03:19:00;;;;;;;6.10;3.80;;;5.10;99.90;;;;;;5074858;28;20044;-59
2020/12/04 03:21:27;;;;;;;6.28;4.20;;;5.00;99.90;;;;;;5075159;28;20045;-61
2020/12/04 03:23:54;;;;;;;4.97;3.50;;;5.10;99.90;;;;;;5074820;28;20061;-58
2020/12/04 03:26:20;;;;;;;5.68;3.95;;;5.10;99.90;;;;;;5057705;28;20045;-60
2020/12/04 03:28:47;;;;;;;6.40;3.90;;;5.00;99.90;;;;;;5054912;28;20474;-59
2020/12/04 03:31:15;;;;;;;5.40;3.75;;;5.10;99.90;;;;;;5054471;28;20044;-61
2020/12/04 03:33:41;;;;;;;5.72;3.92;;;5.10;99.90;;;;;;5063423;28;20048;-59
2020/12/04 03:36:08;;;;;;;4.43;3.30;;;5.30;99.90;;;;;;5074475;28;20048;-61
2020/12/04 03:38:35;;;;;;;6.55;3.13;;;5.30;99.90;;;;;;5074783;28;20072;-61
2020/12/04 03:41:01;;;;;;;4.55;3.35;;;5.40;99.90;;;;;;5065388;28;20048;-61
2020/12/04 03:43:28;;;;;;;5.15;3.47;;;5.40;99.90;;;;;;5054605;28;20056;-61
2020/12/04 03:45:54;;;;;;;4.70;3.05;;;5.40;99.90;;;;;;5054231;28;20045;-60
2020/12/04 03:48:24;;;;;;;4.32;2.97;;;5.40;99.90;;;;;;5061261;28;20440;-62
2020/12/04 03:50:51;;;;;;;4.40;3.33;;;5.40;99.90;;;;;;5060068;28;20049;-62
2020/12/04 03:53:17;;;;;;;4.03;2.88;;;5.50;99.90;;;;;;5054993;28;20057;-62
2020/12/04 03:55:44;;;;;;;4.55;3.45;;;5.40;99.90;;;;;;5053780;28;20053;-62
2020/12/04 03:58:11;;;;;;;4.88;3.30;;;5.50;99.90;;;;;;5053866;28;20497;-62
2020/12/04 04:00:39;;;;;;;4.72;3.38;;;5.40;99.90;;;;;;5053962;28;20061;-62
2020/12/04 04:03:09;;;;;;;4.75;3.33;;;5.50;99.90;;;;;;5054078;28;20133;-63
2020/12/04 04:05:36;;;;;;;3.40;2.35;;;5.60;99.90;;;;;;5066509;28;20052;-63
2020/12/04 04:08:03;;;;;;;4.45;3.10;;;5.50;99.90;;;;;;5074059;28;20513;-63
2020/12/04 04:10:29;;;;;;;4.57;3.08;;;5.50;99.90;;;;;;5073941;28;20048;-62
2020/12/04 04:12:56;;;;;;;3.38;2.22;;;5.50;99.90;;;;;;5073461;28;20060;-62
2020/12/04 04:15:23;;;;;;;4.60;3.10;;;5.60;99.90;;;;;;5073720;28;20045;-62
2020/12/04 04:17:49;;;;;;;5.15;2.95;;;5.60;99.90;;;;;;5071969;28;20060;-62
2020/12/04 04:20:16;;;;;;;4.90;3.35;;;5.50;99.90;;;;;;5073609;28;20051;-62
2020/12/04 04:22:44;;;;;;;3.30;2.40;;;5.60;99.90;;;;;;5073471;28;20071;-62
2020/12/04 04:25:12;;;;;;;4.82;3.35;;;5.50;99.90;;;;;;5073369;28;20053;-62
2020/12/04 04:27:39;;;;;;;3.28;2.42;;;5.50;99.90;;;;;;5073199;28;20060;-62
2020/12/04 04:30:07;;;;;;;5.95;2.58;;;5.70;99.90;;;;;;5073422;28;20102;-60
2020/12/04 04:32:33;;;;;;;4.35;2.47;;;5.80;99.90;;;;;;5069504;28;20445;-61
2020/12/04 04:35:00;;;;;;;3.72;2.72;;;5.70;99.90;;;;;;5053477;28;20055;-61
2020/12/04 04:37:26;;;;;;;3.92;3.10;;;5.60;99.90;;;;;;5053290;28;20433;-62
2020/12/04 04:39:57;;;;;;;3.85;2.72;;;5.60;99.90;;;;;;5053186;28;20060;-61
2020/12/04 04:42:23;;;;;;;3.60;2.70;;;5.80;99.90;;;;;;5053120;28;20049;-62
2020/12/04 04:44:50;;;;;;;3.10;2.35;;;5.90;99.90;;;;;;5053421;28;20565;-62
2020/12/04 04:47:19;;;;;;;3.80;2.35;;;5.90;99.90;;;;;;5053383;28;20044;-62
2020/12/04 04:49:47;;;;;;;3.88;2.70;;;5.80;99.90;;;;;;5053186;28;20048;-62
2020/12/04 04:52:14;;;;;;;3.63;2.80;;;6.00;99.90;;;;;;5053150;28;20500;-62
2020/12/04 04:54:44;;;;;;;4.05;2.78;;;6.00;99.90;;;;;;5052804;28;20056;-62
2020/12/04 04:57:12;;;;;;;4.32;3.03;;;5.80;99.90;;;;;;5053246;28;20482;-59
2020/12/04 04:59:39;;;;;;;4.35;2.83;;;5.90;99.90;;;;;;5052997;28;20411;-62
2020/12/04 05:02:05;;;;;;;4.22;3.05;;;6.00;99.90;;;;;;5052918;28;20045;-62
2020/12/04 05:04:48;;;;;;;4.43;2.83;;;6.00;99.90;;;;;;5052740;28;20060;-62
2020/12/04 05:07:17;;;;;;;3.85;2.60;;;6.00;99.90;;;;;;5052832;28;20080;-62
2020/12/04 05:09:44;;;;;;;4.95;3.15;;;5.90;99.90;;;;;;5052338;28;20147;-62
2020/12/04 05:12:12;;;;;;;4.75;2.92;;;5.80;99.90;;;;;;5052892;28;20056;-62
2020/12/04 05:14:39;;;;;;;3.65;2.53;;;5.80;99.90;;;;;;5052725;28;20045;-62
2020/12/04 05:17:08;;;;;;;3.42;2.47;;;5.80;99.90;;;;;;5053599;28;20095;-62
2020/12/04 05:19:37;;;;;;;5.13;3.63;;;5.70;99.90;;;;;;5052953;28;20136;-62
2020/12/04 05:22:14;;;;;;;3.78;2.75;;;5.40;99.90;;;;;;5052725;28;20129;-62
2020/12/04 05:24:41;;;;;;;6.15;4.00;;;5.20;99.90;;;;;;5052904;28;20556;-62
2020/12/04 05:27:25;;;;;;;4.63;2.40;;;5.10;99.90;;;;;;5052781;28;20053;-62
2020/12/04 05:29:56;;;;;;;5.88;3.88;;;5.00;99.90;;;;;;5052408;28;20107;-62
2020/12/04 05:32:23;;;;;;;5.88;4.15;;;4.90;99.90;;;;;;5063663;28;20124;-61
2020/12/04 05:34:50;;;;;;;9.80;5.25;;;4.80;99.90;;;;;;5072751;28;20048;-61
2020/12/04 05:37:20;;;;;;;7.63;4.55;;;4.80;99.90;;;;;;5072551;28;20101;-59
2020/12/04 05:39:49;;;;;;;6.20;4.45;;;4.70;99.90;;;;;;5069217;28;20086;-61
2020/12/04 05:42:33;;;;;;;9.13;5.20;;;4.70;99.90;;;;;;5053163;28;20056;-60
2020/12/04 05:44:59;;;;;;;8.63;3.75;;;4.70;99.90;;;;;;5052284;28;20080;-62
2020/12/04 05:47:37;;;;;;;8.30;4.18;;;4.70;99.90;;;;;;5052627;28;20210;-62
2020/12/04 05:50:07;;;;;;;9.32;4.70;;;4.70;99.90;;;;;;5052573;28;20057;-61
2020/12/04 05:52:35;;;;;;;7.13;4.40;;;4.70;99.90;;;;;;5052903;28;20040;-62
2020/12/04 05:55:03;;;;;;;7.53;4.75;;;4.70;99.90;;;;;;5071833;28;20057;-62
2020/12/04 05:57:33;;;;;;;7.15;4.63;;;4.60;99.90;;;;;;5072384;28;20501;-62
2020/12/04 06:00:03;;;;;;;6.72;4.85;;;4.70;99.90;;;;;;5072656;28;20048;-62
2020/12/04 06:02:30;;;;;;;7.07;4.00;;;4.70;99.90;;;;;;5072142;28;20088;-62
2020/12/04 06:04:57;;;;;;;6.05;4.28;;;4.80;99.90;;;;;;5072113;28;20058;-62
2020/12/04 06:07:27;;;;;;;8.70;5.65;;;4.80;99.90;;;;;;5070075;28;20072;-62
2020/12/04 06:09:55;;;;;;;;;;;4.80;99.90;;;;;;5053272;28;20077;-62
2020/12/04 06:12:21;;;;;;;6.07;3.75;;;4.90;99.90;;;;;;5052075;28;19925;-62
2020/12/04 06:14:48;;;;;;;5.55;4.00;;;5.10;99.90;;;;;;5055693;28;20095;-62
2020/12/04 06:17:16;;;;;;;6.50;4.38;;;5.10;99.90;;;;;;5055693;28;20056;-62
2020/12/04 06:19:43;;;;;;;6.57;4.47;;;5.20;99.90;;;;;;5055783;28;20060;-62
2020/12/04 06:22:12;;;;;;;6.45;4.47;;;5.30;99.90;;;;;;5055416;28;20104;-63
2020/12/04 06:25:01;;;;;;;6.65;4.93;;;5.30;99.90;;;;;;5056430;28;20060;-63
2020/12/04 06:27:38;;;;;;;5.13;3.22;;;5.30;99.90;;;;;;5055787;28;20478;-62
2020/12/04 06:30:06;;;;;;;4.97;3.75;;;5.50;99.90;;;;;;5055526;28;20056;-63
2020/12/04 06:32:44;;;;;;;5.55;3.25;;;5.50;99.90;;;;;;5071403;28;20067;-63
2020/12/04 06:35:12;;;;;;;3.50;2.45;;;5.70;99.90;;;;;;5075666;28;20076;-63
2020/12/04 06:37:41;;;;;;;4.15;2.80;;;5.80;99.90;;;;;;5075320;28;20059;-63
2020/12/04 06:40:27;;;;;;;3.80;2.78;;;5.80;99.90;;;;;;5073794;28;20080;-63
2020/12/04 06:42:55;;;;;;;4.75;3.10;;;5.80;99.90;;;;;;5055067;28;20052;-63
2020/12/04 06:45:22;;;;;;;5.43;2.97;;;5.90;99.90;;;;;;5056711;28;20049;-63
2020/12/04 06:48:12;;;;;;;3.83;2.88;;;6.00;99.90;;;;;;5054909;28;20041;-63
2020/12/04 06:50:39;;;;;;;;;;;6.00;99.90;;;;;;5055860;28;20049;-63
2020/12/04 06:53:07;;;;;;;5.00;3.03;;;6.00;99.90;;;;;;5055224;28;20353;-63
2020/12/04 06:55:33;;;;;;;3.03;2.15;;;6.10;99.90;;;;;;5054926;28;20053;-63
2020/12/04 06:58:00;;;;;;;3.30;1.88;;;6.10;99.90;;;;;;5055278;28;20056;-63
2020/12/04 07:00:27;;;;;;;3.92;2.70;;;6.10;99.90;;;;;;5055109;28;20482;-63
2020/12/04 07:02:54;;;;;;;2.90;1.85;;;6.10;99.90;;;;;;5061024;28;20501;-63
2020/12/04 07:05:25;;;;;;;3.72;2.58;;;6.20;99.90;;;;;;5075116;28;20386;-63
2020/12/04 07:08:02;;;;;;;3.03;2.10;;;6.20;99.90;;;;;;5074689;28;20052;-63
2020/12/04 07:10:31;;;;;;;3.17;2.05;;;6.20;99.90;;;;;;5074951;28;20054;-63
2020/12/04 07:13:02;;;;;;;3.65;2.20;;;6.20;99.90;;;;;;5074627;28;20044;-63
2020/12/04 07:15:29;;;;;;;2.67;1.67;;;6.20;99.90;;;;;;5074814;28;20166;-63
2020/12/04 07:17:57;;;;;;;3.15;2.28;;;6.20;99.90;;;;;;5070761;28;20048;-63
2020/12/04 07:20:35;;;;;;;2.78;1.85;;;6.30;99.90;;;;;;5069492;28;20045;-63
2020/12/04 07:23:06;;;;;;;3.78;2.40;;;6.20;99.90;;;;;;5054568;28;20057;-63
2020/12/04 07:25:35;;;;;;;3.33;2.42;;;6.30;99.90;;;;;;5054573;28;20045;-62
2020/12/04 07:28:03;;;;;;;2.90;2.03;;;6.30;99.90;;;;;;5046383;28;20390;-63
2020/12/04 07:30:30;;;;;;;3.47;2.40;;;6.20;99.90;;;;;;5054368;28;20049;-62
2020/12/04 07:32:56;;;;;;;4.93;2.40;;;6.30;99.90;;;;;;5060858;28;20051;-62
2020/12/04 07:35:24;;;;;;;2.97;2.10;;;6.30;99.90;;;;;;5074693;28;20055;-62
2020/12/04 07:37:52;;;;;;;3.00;2.20;;;6.40;99.90;;;;;;5073945;28;20058;-62
2020/12/04 07:40:19;;;;;;;3.25;2.00;;;6.40;99.90;;;;;;5071327;28;20045;-62
2020/12/04 07:42:45;;;;;;;2.97;2.22;;;6.50;99.90;;;;;;5054198;28;20485;-62
2020/12/04 07:45:15;;;;;;;2.88;2.22;;;6.50;99.90;;;;;;5054302;28;20052;-62
2020/12/04 07:47:42;;;;;;;2.55;1.77;;;6.50;99.90;;;;;;5054710;28;20136;-62
2020/12/04 07:50:11;;;;;;;3.17;2.53;;;6.60;99.90;;;;;;5054264;28;20045;-62
2020/12/04 07:52:49;;;;;;;2.50;1.85;;;6.60;99.90;;;;;;5054080;28;20414;-62
2020/12/04 07:55:18;;;;;;;4.88;2.22;;;6.70;99.90;;;;;;5053804;28;20189;-62
2020/12/04 07:57:53;;;;;;;3.25;2.17;;;6.80;99.90;;;;;;5053705;28;20103;-62
2020/12/04 08:00:20;;;;;;;3.20;2.50;;;6.80;99.90;;;;;;5054101;28;20084;-62
2020/12/04 08:02:47;;;;;;;2.58;2.00;;;6.80;99.90;;;;;;5054357;28;20045;-62
2020/12/04 08:05:20;;;;;;;2.38;1.73;;;6.80;99.90;;;;;;5053748;28;20048;-62
2020/12/04 08:07:51;;;;;;;2.75;1.90;;;6.90;99.90;;;;;;5053236;28;20490;-62
2020/12/04 08:10:19;;;;;;;2.85;1.60;;;6.90;99.90;;;;;;5053256;28;20102;-62
2020/12/04 08:12:49;;;;;;;3.33;1.83;;;7.00;99.90;;;;;;5053091;28;20057;-62
2020/12/04 08:15:17;;;;;;;3.05;2.10;;;7.00;99.90;;;;;;5053536;28;20040;-62
2020/12/04 08:17:44;;;;;;;2.47;1.63;;;7.00;99.90;;;;;;5064570;28;20048;-63
2020/12/04 08:20:16;;;;;;;2.25;1.35;;;7.10;99.90;;;;;;5073012;28;20408;-63
2020/12/04 08:22:47;;;;;;;2.47;1.80;;;7.20;99.90;;;;;;5073341;28;20053;-63
2020/12/04 08:25:14;;;;;;;2.50;1.75;;;7.20;99.90;;;;;;5073829;28;20052;-63
2020/12/04 08:27:43;;;;;;;2.45;1.55;;;7.20;99.90;;;;;;5073300;28;20044;-63
2020/12/04 08:30:15;;;;;;;2.22;1.63;;;7.20;99.90;;;;;;5072487;28;20055;-63
2020/12/04 08:32:43;;;;;;;2.55;2.13;;;7.20;99.90;;;;;;5063863;28;20115;-63
2020/12/04 08:35:17;;;;;;;2.15;1.70;;;7.30;99.90;;;;;;5072822;28;20390;-63
2020/12/04 08:37:44;;;;;;;2.35;1.80;;;7.30;99.90;;;;;;5072727;28;20106;-63
2020/12/04 08:40:23;;;;;;;3.15;1.98;;;7.40;99.90;;;;;;5071201;28;20131;-63
2020/12/04 08:42:51;;;;;;;3.85;2.10;;;7.50;99.90;;;;;;5052851;28;20052;-63
2020/12/04 08:45:24;;;;;;;3.55;2.53;;;7.50;99.90;;;;;;5052852;28;20052;-64
2020/12/04 08:47:51;;;;;;;2.85;2.10;;;7.50;99.90;;;;;;5069988;28;20059;-64
2020/12/04 08:50:20;;;;;;;3.35;2.00;;;7.60;99.90;;;;;;5072859;28;20142;-64
2020/12/04 08:52:49;;;;;;;3.30;2.33;;;7.60;99.90;;;;;;5073141;28;20049;-64
2020/12/04 08:55:18;;;;;;;4.47;2.28;;;7.60;99.90;;;;;;5072427;28;20061;-64
2020/12/04 08:57:48;;;;;;;3.42;2.30;;;7.60;99.90;;;;;;5058574;28;20052;-64
2020/12/04 09:00:18;;;;;;;3.83;2.20;;;7.50;99.90;;;;;;5071305;28;20087;-64
2020/12/04 09:02:49;;;;;;;2.80;2.25;;;7.60;99.90;;;;;;5066923;28;20122;-64
2020/12/04 09:05:17;;;;;;;3.28;1.98;;;7.80;99.90;;;;;;5070056;28;20083;-63
2020/12/04 09:07:45;;;;;;;2.53;2.03;;;8.00;99.90;;;;;;5072153;28;20044;-64
2020/12/04 09:10:13;;;;;;;3.45;1.90;;;8.30;99.90;;;;;;5072336;28;20444;-63
2020/12/04 09:12:41;;;;;;;2.90;1.90;;;8.30;99.90;;;;;;5072070;28;20440;-63
2020/12/04 09:15:10;;;;;;;2.85;1.88;;;8.40;99.90;;;;;;5071337;28;20049;-63
2020/12/04 09:17:38;;;;;;;2.60;1.77;;;8.60;99.90;;;;;;5072496;28;20477;-63
2020/12/04 09:20:06;;;;;;;2.72;1.88;;;8.50;99.90;;;;;;5071862;28;20052;-63
2020/12/04 09:22:33;;;;;;;3.33;1.85;;;8.30;99.90;;;;;;5072304;28;20044;-63
2020/12/04 09:25:01;;;;;;;2.00;1.50;;;8.10;99.90;;;;;;5071904;28;20052;-63
2020/12/04 09:27:28;;;;;;;2.58;1.75;;;8.40;99.90;;;;;;5071509;28;20059;-63
2020/12/04 09:29:54;;;;;;;2.67;1.92;;;8.30;99.90;;;;;;5059954;28;20047;-62
2020/12/04 09:32:21;;;;;;;2.15;1.42;;;8.40;99.90;;;;;;5057711;28;20501;-63
2020/12/04 09:34:50;;;;;;;2.10;1.58;;;8.30;99.90;;;;;;5052545;28;20107;-62
2020/12/04 09:37:22;;;;;;;2.97;1.97;;;8.50;99.90;;;;;;5058282;28;20110;-62
2020/12/04 09:39:51;;;;;;;2.40;1.45;;;8.50;99.90;;;;;;5052085;28;20053;-62
2020/12/04 09:42:19;;;;;;;2.92;1.85;;;8.70;99.90;;;;;;5052334;28;20565;-62
2020/12/04 09:44:46;;;;;;;2.35;1.52;;;9.00;99.90;;;;;;5052580;28;20611;-63
2020/12/04 09:47:13;;;;;;;3.13;1.70;;;9.40;99.90;;;;;;5052382;28;20049;-63
2020/12/04 09:49:43;;;;;;;2.42;1.90;;;9.70;99.90;;;;;;5068354;28;20055;-63
2020/12/04 09:52:12;;;;;;;2.35;1.60;;;10.10;99.90;;;;;;5067040;28;20071;-63
2020/12/04 09:54:43;;;;;;;2.15;1.50;;;10.20;99.90;;;;;;5064649;28;20057;-63
2020/12/04 09:57:12;;;;;;;7.13;1.90;;;9.80;99.90;;;;;;5050471;28;20112;-63
2020/12/04 09:59:39;;;;;;;2.70;1.90;;;9.70;99.90;;;;;;5054947;28;20060;-63
2020/12/04 10:02:07;;;;;;;3.40;1.85;;;10.00;99.90;;;;;;5055071;28;20044;-63
2020/12/04 10:04:34;;;;;;;2.22;1.60;;;9.90;99.90;;;;;;5055948;28;20060;-63
2020/12/04 10:07:01;;;;;;;3.10;1.67;;;10.00;99.90;;;;;;5054288;28;20048;-63
2020/12/04 10:09:30;;;;;;;2.08;1.67;;;10.10;99.90;;;;;;5055883;28;20567;-63
2020/12/04 10:11:57;;;;;;;2.08;1.88;;;10.10;99.90;;;;;;5055201;28;20053;-63
2020/12/04 10:14:25;;;;;;;3.42;2.90;;;10.20;99.90;;;;;;5054408;28;20049;-63
2020/12/04 10:16:52;;;;;;;3.40;3.10;;;11.80;99.90;;;;;;5055980;28;20055;-63
2020/12/04 10:19:20;;;;;;;3.53;2.80;;;12.50;99.90;;;;;;5056097;28;20053;-63
2020/12/04 10:21:48;;;;;;;3.57;3.27;;;13.40;99.90;;;;;;5055319;28;20056;-63
2020/12/04 10:24:15;;;;;;;2.40;2.20;;;14.90;99.90;;;;;;5055190;28;20045;-64
2020/12/04 10:26:48;;;;;;;3.20;3.00;;;15.10;99.90;;;;;;5055857;28;20059;-64
2020/12/04 10:29:15;;;;;;;2.63;1.73;;;13.70;99.90;;;;;;5055712;28;20072;-64
2020/12/04 10:31:42;;;;;;;1.95;1.52;;;13.20;99.90;;;;;;5055594;28;20055;-64
2020/12/04 10:34:09;;;;;;;4.00;3.70;;;13.60;99.90;;;;;;5053881;28;20044;-64
2020/12/04 10:36:39;;;;;;;3.63;3.35;;;15.80;97.40;;;;;;5055783;28;20517;-64
2020/12/04 10:39:07;;;;;;;2.45;2.25;;;15.20;96.70;;;;;;5054916;28;20119;-64
2020/12/04 10:41:35;;;;;;;2.80;2.50;;;14.30;98.00;;;;;;5055619;28;20053;-64
2020/12/04 10:44:06;;;;;;;3.97;2.00;;;15.40;96.50;;;;;;5054844;28;20045;-64
2020/12/04 10:46:33;;;;;;;5.05;4.75;;;13.70;98.30;;;;;;5055059;28;20044;-63
2020/12/04 10:49:00;;;;;;;3.10;2.80;;;14.60;98.30;;;;;;5055120;28;20393;-63
2020/12/04 10:51:27;;;;;;;2.13;1.80;;;15.70;95.00;;;;;;5055190;28;20084;-63
2020/12/04 10:53:53;;;;;;;2.42;1.60;;;15.60;94.90;;;;;;5053667;28;20052;-63
2020/12/04 10:56:20;;;;;;;2.85;1.75;;;14.20;96.50;;;;;;5054747;28;20107;-63
2020/12/04 10:58:48;;;;;;;1.80;1.20;;;13.90;96.90;;;;;;5054848;28;20478;-64
2020/12/04 11:01:22;;;;;;;2.25;1.30;;;11.50;99.90;;;;;;5054667;28;20056;-64
2020/12/04 11:06:33;;;;;;;2.97;1.60;;;10.30;99.90;;;;;;5054291;28;20059;-64
2020/12/04 11:09:00;;;;;;;1.92;1.55;;;10.30;99.90;;;;;;5054869;28;20402;-63
2020/12/04 11:11:27;;;;;;;2.00;1.45;;;10.80;99.90;;;;;;5054288;28;20072;-63
2020/12/04 11:13:54;;;;;;;1.63;1.23;;;11.50;99.90;;;;;;5054087;28;20132;-63
2020/12/04 11:16:22;;;;;;;1.90;1.30;;;11.70;99.90;;;;;;5047622;28;20045;-63
2020/12/04 11:18:49;;;;;;;2.22;1.60;;;11.50;99.90;;;;;;5052529;28;20052;-63
2020/12/04 11:21:15;;;;;;;2.30;2.10;;;11.40;99.90;;;;;;5054412;28;20144;-63
2020/12/04 11:23:42;;;;;;;2.38;2.00;;;11.80;99.90;;;;;;5054079;28;20044;-63
2020/12/04 11:26:09;;;;;;;3.92;3.53;;;11.80;99.90;;;;;;5054196;28;20053;-63
2020/12/04 11:28:36;;;;;;;2.50;2.30;;;12.60;99.90;;;;;;5052969;28;20048;-63
2020/12/04 11:31:02;;;;;;;6.68;6.28;;;12.70;99.90;;;;;;5053960;28;20397;-63
2020/12/04 11:33:30;;;;;;;22.80;21.83;;;13.80;99.90;;;;;;5054561;28;20585;-63
2020/12/04 11:35:57;;;;;;;13.52;12.93;;;14.90;98.60;;;;;;5054097;28;20448;-63
2020/12/04 11:38:24;;;;;;;69.43;66.38;;;16.50;94.80;;;;;;5053182;28;20084;-64
2020/12/04 11:40:51;;;;;;;73.18;70.07;;;14.80;93.50;;;;;;5053633;28;20056;-63
2020/12/04 11:43:18;;;;;;;24.90;23.88;;;15.90;92.40;;;;;;5054218;28;20055;-63
2020/12/04 11:45:45;;;;;;;13.38;12.68;;;16.60;91.20;;;;;;5051929;28;20048;-63
2020/12/04 11:48:11;;;;;;;15.77;15.02;;;15.20;92.70;;;;;;5051897;28;20398;-63
2020/12/04 11:50:39;;;;;;;5.93;5.63;;;16.50;90.70;;;;;;5054232;28;20044;-63
2020/12/04 11:53:05;;;;;;;2.15;1.60;;;16.10;90.80;;;;;;5053325;28;20045;-64
2020/12/04 11:55:32;;;;;;;1.83;1.40;;;16.80;88.30;;;;;;5066163;28;20052;-63
2020/12/04 11:57:59;;;;;;;1.95;1.20;;;14.20;91.20;;;;;;5059840;28;20115;-63
2020/12/04 12:00:25;;;;;;;2.03;1.33;;;13.80;93.80;;;;;;5071837;28;20078;-63
2020/12/04 12:02:52;;;;;;;2.13;1.40;;;13.50;94.60;;;;;;5073342;28;20094;-63
2020/12/04 12:05:19;;;;;;;1.85;1.40;;;12.80;96.40;;;;;;5073741;28;20489;-63
2020/12/04 12:07:46;;;;;;;2.10;1.70;;;11.60;99.60;;;;;;5073802;28;20516;-63
2020/12/04 12:10:13;;;;;;;2.53;1.50;;;12.00;99.90;;;;;;5064823;28;20053;-64
2020/12/04 12:12:40;;;;;;;4.15;3.85;;;11.90;99.90;;;;;;5053015;28;20045;-64
2020/12/04 12:15:07;;;;;;;2.00;1.80;;;12.00;99.90;;;;;;5053731;28;20439;-65
2020/12/04 12:17:34;;;;;;;4.10;3.80;;;12.00;99.90;;;;;;5053696;28;20107;-65
2020/12/04 12:20:00;;;;;;;3.83;3.53;;;12.00;99.90;;;;;;5053491;28;20052;-65
2020/12/04 12:22:27;;;;;;;3.13;2.92;;;12.20;99.90;;;;;;5052946;28;20374;-65
2020/12/04 12:24:54;;;;;;;3.90;3.60;;;12.10;99.90;;;;;;5056003;28;20494;-65
2020/12/04 12:27:21;;;;;;;2.13;1.55;;;12.20;99.90;;;;;;5061699;28;20044;-64
2020/12/04 12:29:48;;;;;;;2.45;1.48;;;12.20;99.90;;;;;;5073447;28;20501;-63
2020/12/04 12:32:15;;;;;;;1.95;1.58;;;11.50;99.90;;;;;;5073141;28;20099;-64
2020/12/04 12:37:22;;;;;;;3.60;3.30;;;10.90;99.90;;;;;;5070111;28;20049;-65
2020/12/04 12:39:50;;;;;;;2.80;2.28;;;11.30;99.90;;;;;;5069232;28;20144;-65
2020/12/04 12:42:20;;;;;;;3.83;3.63;;;10.90;99.90;;;;;;5066274;28;20052;-65
2020/12/04 12:44:47;;;;;;;7.53;7.13;;;10.60;99.90;;;;;;5072763;28;20052;-65
2020/12/04 12:47:14;;;;;;;29.70;28.45;;;11.10;99.90;;;;;;5071934;28;20119;-65
2020/12/04 12:49:41;;;;;;;10.02;9.63;;;11.30;99.90;;;;;;5070865;28;20473;-65
2020/12/04 12:52:08;;;;;;;3.40;3.20;;;11.10;99.90;;;;;;5064572;28;20410;-65
2020/12/04 12:54:34;;;;;;;8.85;8.45;;;11.20;99.90;;;;;;5055421;28;20548;-65
2020/12/04 12:57:01;;;;;;;12.75;12.15;;;11.20;99.90;;;;;;5057994;28;20045;-65
2020/12/04 12:59:28;;;;;;;2.35;1.40;;;11.40;99.90;;;;;;5071211;28;20064;-65
2020/12/04 13:01:55;;;;;;;2.30;1.60;;;11.80;99.90;;;;;;5058189;28;20052;-65
2020/12/04 13:04:24;;;;;;;2.17;1.02;;;11.50;99.90;;;;;;5052519;28;20044;-65
2020/12/04 13:06:52;;;;;;;1.57;1.00;;;11.10;99.90;;;;;;5070158;28;20406;-65